Time;durP1;ratioP1;P1;durP2;ratioP2;P2;SDS_P1;SDS_P2;PMS_P1;PMS_P2;Temp;Humidity;BMP_temperature;BMP_pressure;BME280_temperature;BME280_humidity;BME280_pressure;Samples;Min_cycle;Max_cycle;Signal;HPM_P1;HPM_P2
2024/05/04 00:00:57;;;;;;;;;;;8.20;99.90;;;;;;5511892;26;19929;-69
2024/05/04 00:03:23;;;;;;;;;;;8.20;99.90;;;;;;5519824;26;19999;-69
2024/05/04 00:05:48;;;;;;;;;;;8.10;99.90;;;;;;5511882;25;20547;-69
2024/05/04 00:08:14;;;;;;;;;;;8.10;99.90;;;;;;5515717;26;19927;-69
2024/05/04 00:10:39;;;;;;;;;;;8.20;99.90;;;;;;5500535;25;19998;-69
2024/05/04 00:13:05;;;;;;;;;;;8.20;99.90;;;;;;5508447;26;19935;-69
2024/05/04 00:15:31;;;;;;;;;;;8.20;99.90;;;;;;5477268;26;19939;-69
2024/05/04 00:17:56;;;;;;;;;;;8.20;99.90;;;;;;5513800;25;20386;-69
2024/05/04 00:20:22;;;;;;;;;;;8.20;99.90;;;;;;5505068;26;19927;-69
2024/05/04 00:22:47;;;;;;;;;;;8.30;99.90;;;;;;5517910;26;19939;-70
2024/05/04 00:25:13;;;;;;;;;;;8.30;99.90;;;;;;5518444;26;19927;-69
2024/05/04 00:27:38;;;;;;;;;;;8.30;99.90;;;;;;5516806;25;19927;-69
2024/05/04 00:30:04;;;;;;;;;;;8.30;99.90;;;;;;5518948;26;20299;-69
2024/05/04 00:32:30;;;;;;;;;;;8.30;99.90;;;;;;5517643;26;19927;-69
2024/05/04 00:34:56;;;;;;;;;;;8.20;99.90;;;;;;5518946;26;19984;-69
2024/05/04 00:37:22;;;;;;;;;;;8.20;99.90;;;;;;5485136;26;19967;-69
2024/05/04 00:39:47;;;;;;;;;;;8.20;99.90;;;;;;5518811;26;19927;-69
2024/05/04 00:42:13;;;;;;;;;;;8.30;99.90;;;;;;5518008;25;20323;-69
2024/05/04 00:44:39;;;;;;;;;;;8.20;99.90;;;;;;5519036;26;19939;-69
2024/05/04 00:47:05;;;;;;;;;;;8.70;99.90;;;;;;5485549;26;19935;-69
2024/05/04 00:49:34;;;;;;;;;;;8.20;99.90;;;;;;5518386;25;19996;-70
2024/05/04 00:52:00;;;;;;;;;;;8.20;99.90;;;;;;5518186;26;19928;-69
2024/05/04 00:54:26;;;;;;;;;;;8.20;99.90;;;;;;5518613;26;19996;-69
2024/05/04 00:56:52;;;;;;;;;;;8.20;99.90;;;;;;5510949;26;19927;-69
2024/05/04 00:59:18;;;;;;;;;;;8.20;99.90;;;;;;5513156;25;19935;-69
2024/05/04 01:01:44;;;;;;;;;;;8.20;99.90;;;;;;5517997;26;19939;-69
2024/05/04 01:04:09;;;;;;;;;;;8.10;99.90;;;;;;5518841;26;19934;-69
2024/05/04 01:06:35;;;;;;;;;;;8.10;99.90;;;;;;5515574;26;19928;-69
2024/05/04 01:09:01;;;;;;;;;;;8.10;99.90;;;;;;5515615;25;20012;-69
2024/05/04 01:11:27;;;;;;;;;;;8.10;99.90;;;;;;5520570;26;19927;-69
2024/05/04 01:13:52;;;;;;;;;;;8.10;99.90;;;;;;5520530;26;19936;-69
2024/05/04 01:16:18;;;;;;;;;;;8.10;99.90;;;;;;5521187;26;20264;-69
2024/05/04 01:18:44;;;;;;;;;;;8.00;99.90;;;;;;5510547;25;19938;-69
2024/05/04 01:21:10;;;;;;;;;;;7.50;99.90;;;;;;5520515;26;20447;-69
2024/05/04 01:23:35;;;;;;;;;;;8.00;99.90;;;;;;5522078;26;19927;-69
2024/05/04 01:26:01;;;;;;;;;;;8.00;99.90;;;;;;5518675;25;19995;-69
2024/05/04 01:28:26;;;;;;;;;;;8.00;99.90;;;;;;5521138;25;19940;-69
2024/05/04 01:30:52;;;;;;;;;;;7.90;99.90;;;;;;5511724;26;19928;-69
2024/05/04 01:33:18;;;;;;;;;;;8.00;99.90;;;;;;5522384;26;19943;-69
2024/05/04 01:35:43;;;;;;;;;;;7.90;99.90;;;;;;5515861;26;19927;-69
2024/05/04 01:38:09;;;;;;;;;;;7.90;99.90;;;;;;5513406;25;20320;-69
2024/05/04 01:40:35;;;;;;;;;;;7.90;99.90;;;;;;5516925;26;20344;-69
2024/05/04 01:43:00;;;;;;;;;;;8.00;99.90;;;;;;5520463;25;19942;-69
2024/05/04 01:45:27;;;;;;;;;;;8.60;99.90;;;;;;5506515;26;19934;-69
2024/05/04 01:47:52;;;;;;;;;;;8.00;99.90;;;;;;5507725;26;19936;-69
2024/05/04 01:50:18;;;;;;;;;;;7.90;99.90;;;;;;5514647;25;19928;-69
2024/05/04 01:52:44;;;;;;;;;;;7.90;99.90;;;;;;5510387;26;19936;-69
2024/05/04 01:55:09;;;;;;;;;;;7.80;99.90;;;;;;5511919;26;20001;-69
2024/05/04 01:57:35;;;;;;;;;;;7.80;99.90;;;;;;5521535;25;19928;-69
2024/05/04 02:00:01;;;;;;;;;;;7.70;99.90;;;;;;5510377;26;20003;-69
2024/05/04 02:02:26;;;;;;;;;;;7.60;99.90;;;;;;5512698;26;19927;-69
2024/05/04 02:04:52;;;;;;;;;;;7.60;99.90;;;;;;5519538;26;19927;-69
2024/05/04 02:07:18;;;;;;;;;;;7.50;99.90;;;;;;5516755;25;20269;-69
2024/05/04 02:09:43;;;;;;;;;;;7.50;99.90;;;;;;5510037;26;19927;-69
2024/05/04 02:12:09;;;;;;;;;;;7.40;99.90;;;;;;5517418;26;19995;-69
2024/05/04 02:14:34;;;;;;;;;;;7.40;99.90;;;;;;5521035;26;19935;-69
2024/05/04 02:17:00;;;;;;;;;;;7.40;99.90;;;;;;5519779;25;19938;-69
2024/05/04 02:19:26;;;;;;;;;;;7.40;99.90;;;;;;5514120;26;20368;-69
2024/05/04 02:21:51;;;;;;;;;;;7.40;99.90;;;;;;5519683;26;20256;-69
2024/05/04 02:24:17;;;;;;;;;;;7.40;99.90;;;;;;5509501;26;19935;-69
2024/05/04 02:26:42;;;;;;;;;;;7.40;99.90;;;;;;5517228;25;19942;-69
2024/05/04 02:29:08;;;;;;;;;;;7.40;99.90;;;;;;5512292;26;20452;-69
2024/05/04 02:31:33;;;;;;;;;;;7.40;99.90;;;;;;5516700;26;19934;-69
2024/05/04 02:33:59;;;;;;;;;;;7.40;99.90;;;;;;5479402;26;19927;-69
2024/05/04 02:36:25;;;;;;;;;;;7.40;99.90;;;;;;5515240;25;20210;-69
2024/05/04 02:38:51;;;;;;;;;;;7.30;99.90;;;;;;5520475;26;19928;-69
2024/05/04 02:41:16;;;;;;;;;;;7.30;99.90;;;;;;5516037;26;19955;-69
2024/05/04 02:43:42;;;;;;;;;;;7.30;99.90;;;;;;5503290;25;19934;-68
2024/05/04 02:46:08;;;;;;;;;;;7.30;99.90;;;;;;5514895;26;19934;-69
2024/05/04 02:48:33;;;;;;;;;;;7.80;99.90;;;;;;5515973;26;20368;-69
2024/05/04 02:50:59;;;;;;;;;;;7.30;99.90;;;;;;5519138;25;19928;-69
2024/05/04 02:53:25;;;;;;;;;;;7.40;99.90;;;;;;5520451;26;20394;-69
2024/05/04 02:55:50;;;;;;;;;;;7.20;99.90;;;;;;5515398;26;20275;-69
2024/05/04 02:58:16;;;;;;;;;;;7.20;99.90;;;;;;5518044;25;19939;-69
2024/05/04 03:00:42;;;;;;;;;;;7.20;99.90;;;;;;5506459;26;19927;-69
2024/05/04 03:03:07;;;;;;;;;;;7.20;99.90;;;;;;5509574;26;20376;-69
2024/05/04 03:05:33;;;;;;;;;;;7.20;99.90;;;;;;5516998;26;19932;-69
2024/05/04 03:07:58;;;;;;;;;;;7.20;99.90;;;;;;5497778;25;20002;-69
2024/05/04 03:10:24;;;;;;;;;;;7.10;99.90;;;;;;5516012;26;19935;-69
2024/05/04 03:12:49;;;;;;;;;;;7.10;99.90;;;;;;5515940;26;19932;-69
2024/05/04 03:15:15;;;;;;;;;;;7.10;99.90;;;;;;5519829;26;19934;-69
2024/05/04 03:17:44;;;;;;;;;;;7.10;99.90;;;;;;5519242;25;20000;-69
2024/05/04 03:20:12;;;;;;;;;;;7.10;99.90;;;;;;5505906;26;19928;-69
2024/05/04 03:22:39;;;;;;;;;;;7.10;99.90;;;;;;5520672;26;19947;-69
2024/05/04 03:25:06;;;;;;;;;;;7.20;99.90;;;;;;5481284;26;19995;-69
2024/05/04 03:27:31;;;;;;;;;;;7.20;99.90;;;;;;5519089;26;19928;-69
2024/05/04 03:30:13;;;;;;;;;;;7.30;99.90;;;;;;5516990;26;19931;-69
2024/05/04 03:32:38;;;;;;;;;;;7.20;99.90;;;;;;5509017;25;20330;-68
2024/05/04 03:35:04;;;;;;;;;;;7.20;99.90;;;;;;5509130;26;19933;-69
2024/05/04 03:37:31;;;;;;;;;;;7.10;99.90;;;;;;5514839;26;20461;-69
2024/05/04 03:39:56;;;;;;;;;;;7.00;99.90;;;;;;5519233;26;19927;-69
2024/05/04 03:42:22;;;;;;;;;;;6.90;99.90;;;;;;5514271;25;19936;-69
2024/05/04 03:44:48;;;;;;;;;;;6.70;99.90;;;;;;5509454;26;19934;-69
2024/05/04 03:47:14;;;;;;;;;;;6.70;99.90;;;;;;5514247;26;20336;-69
2024/05/04 03:49:40;;;;;;;;;;;6.50;99.90;;;;;;5520076;25;20129;-68
2024/05/04 03:52:05;;;;;;;;;;;6.50;99.90;;;;;;5518735;26;19936;-68
2024/05/04 03:54:31;;;;;;;;;;;6.40;99.90;;;;;;5517897;25;20374;-68
2024/05/04 03:56:57;;;;;;;;;;;6.30;99.90;;;;;;5519059;26;19927;-69
2024/05/04 03:59:22;;;;;;;;;;;6.30;99.90;;;;;;5519082;26;19935;-69
2024/05/04 04:01:48;;;;;;;;;;;6.20;99.90;;;;;;5518485;25;19959;-69
2024/05/04 04:04:14;;;;;;;;;;;6.20;99.90;;;;;;5505744;26;20371;-69
2024/05/04 04:06:39;;;;;;;;;;;6.20;99.90;;;;;;5519357;26;19963;-68
2024/05/04 04:09:05;;;;;;;;;;;6.20;99.90;;;;;;5519104;26;20142;-68
2024/05/04 04:11:30;;;;;;;;;;;6.20;99.90;;;;;;5518788;25;19934;-68
2024/05/04 04:13:56;;;;;;;;;;;6.30;99.90;;;;;;5519224;26;19935;-69
2024/05/04 04:16:22;;;;;;;;;;;6.40;99.90;;;;;;5518819;26;19958;-68
2024/05/04 04:18:47;;;;;;;;;;;6.40;99.90;;;;;;5517598;25;20259;-68
2024/05/04 04:21:13;;;;;;;;;;;6.50;99.90;;;;;;5485299;26;20386;-68
2024/05/04 04:23:39;;;;;;;;;;;6.50;99.90;;;;;;5519506;26;19935;-68
2024/05/04 04:26:04;;;;;;;;;;;6.60;99.90;;;;;;5516252;26;19990;-68
2024/05/04 04:28:30;;;;;;;;;;;6.60;99.90;;;;;;5518420;25;19928;-68
2024/05/04 04:30:55;;;;;;;;;;;6.70;99.90;;;;;;5518623;26;19934;-67
2024/05/04 04:33:21;;;;;;;;;;;6.70;99.90;;;;;;5515949;26;19934;-67
2024/05/04 04:35:47;;;;;;;;;;;6.80;99.90;;;;;;5514805;25;21194;-67
2024/05/04 04:38:12;;;;;;;;;;;6.80;99.90;;;;;;5514143;26;20275;-67
2024/05/04 04:40:38;;;;;;;;;;;6.80;99.90;;;;;;5479526;26;19939;-67
2024/05/04 04:43:03;;;;;;;;;;;6.80;99.90;;;;;;5516245;25;19935;-67
2024/05/04 04:45:29;;;;;;;;;;;6.90;99.90;;;;;;5520199;26;19996;-67
2024/05/04 04:47:56;;;;;;;;;;;6.90;99.90;;;;;;5522208;26;19935;-67
2024/05/04 04:50:21;;;;;;;;;;;7.00;99.90;;;;;;5518178;25;19932;-67
2024/05/04 04:52:47;;;;;;;;;;;7.10;99.90;;;;;;5516119;26;19935;-67
2024/05/04 04:55:12;;;;;;;;;;;7.40;99.90;;;;;;5512696;26;20339;-67
2024/05/04 04:57:38;;;;;;;;;;;8.40;99.90;;;;;;5521979;25;19956;-67
2024/05/04 05:00:04;;;;;;;;;;;8.40;99.90;;;;;;5514126;26;19968;-67
2024/05/04 05:02:29;;;;;;;;;;;8.70;99.90;;;;;;5522723;26;20278;-68
2024/05/04 05:04:55;;;;;;;;;;;9.00;99.90;;;;;;5514243;26;19927;-68
2024/05/04 05:07:20;;;;;;;;;;;9.20;99.90;;;;;;5513638;25;19927;-68
2024/05/04 05:09:48;;;;;;;;;;;9.40;99.90;;;;;;5521558;26;20350;-68
2024/05/04 05:12:14;;;;;;;;;;;9.80;99.90;;;;;;5487258;26;19927;-68
2024/05/04 05:14:41;;;;;;;;;;;10.90;99.90;;;;;;5516722;25;19939;-68
2024/05/04 05:17:06;;;;;;;;;;;11.70;99.90;;;;;;5520261;26;19934;-68
2024/05/04 05:19:32;;;;;;;;;;;12.60;99.90;;;;;;5522617;26;19956;-68
2024/05/04 05:21:58;;;;;;;;;;;13.60;99.90;;;;;;5521068;25;19943;-69
2024/05/04 05:24:23;;;;;;;;;;;14.50;99.90;;;;;;5506916;26;20384;-68
2024/05/04 05:26:49;;;;;;;;;;;15.40;99.90;;;;;;5503912;26;20080;-69
2024/05/04 05:29:14;;;;;;;;;;;15.90;99.90;;;;;;5483803;26;19927;-68
2024/05/04 05:31:40;;;;;;;;;;;16.40;99.90;;;;;;5521160;25;19927;-69
2024/05/04 05:34:06;;;;;;;;;;;17.00;99.90;;;;;;5520891;26;20451;-68
2024/05/04 05:36:31;;;;;;;;;;;17.40;99.90;;;;;;5517114;26;19955;-69
2024/05/04 05:38:57;;;;;;;;;;;17.90;99.90;;;;;;5517811;25;19939;-69
2024/05/04 05:41:23;;;;;;;;;;;18.30;99.90;;;;;;5490857;26;19935;-69
2024/05/04 05:43:48;;;;;;;;;;;18.40;99.90;;;;;;5501351;25;20336;-69
2024/05/04 05:46:14;;;;;;;;;;;18.10;99.90;;;;;;5521641;26;20262;-70
2024/05/04 05:48:40;;;;;;;;;;;17.80;99.90;;;;;;5512323;26;19936;-69
2024/05/04 05:51:06;;;;;;;;;;;17.30;99.90;;;;;;5515552;25;19927;-69
2024/05/04 05:53:32;;;;;;;;;;;16.60;99.90;;;;;;5521196;26;19928;-69
2024/05/04 05:55:57;;;;;;;;;;;15.90;99.90;;;;;;5508000;26;19928;-69
2024/05/04 05:58:23;;;;;;;;;;;15.30;99.90;;;;;;5520142;26;19938;-69
2024/05/04 06:00:48;;;;;;;;;;;14.70;99.90;;;;;;5520496;25;19927;-69
2024/05/04 06:03:14;;;;;;;;;;;14.40;99.90;;;;;;5515451;26;19928;-68
2024/05/04 06:05:40;;;;;;;;;;;14.10;99.90;;;;;;5507504;26;19927;-69
2024/05/04 06:08:05;;;;;;;;;;;13.90;99.90;;;;;;5509030;25;19928;-69
2024/05/04 06:10:31;;;;;;;;;;;13.40;99.90;;;;;;5509537;26;19935;-69
2024/05/04 06:12:56;;;;;;;;;;;13.60;99.90;;;;;;5517285;26;19963;-69
2024/05/04 06:15:22;;;;;;;;;;;13.70;99.90;;;;;;5515778;26;19991;-69
2024/05/04 06:17:47;;;;;;;;;;;14.00;99.90;;;;;;5517497;25;19955;-69
2024/05/04 06:20:13;;;;;;;;;;;14.60;99.90;;;;;;5511402;26;19935;-70
2024/05/04 06:22:38;;;;;;;;;;;15.00;99.90;;;;;;5521360;26;19928;-69
2024/05/04 06:25:04;;;;;;;;;;;15.30;99.90;;;;;;5506815;25;22190;-70
2024/05/04 06:27:30;;;;;;;;;;;15.40;99.90;;;;;;5520693;25;19943;-69
2024/05/04 06:29:55;;;;;;;;;;;15.30;99.90;;;;;;5505135;26;19928;-69
2024/05/04 06:32:21;;;;;;;;;;;15.40;99.90;;;;;;5520922;26;19927;-70
2024/05/04 06:34:47;;;;;;;;;;;15.60;99.90;;;;;;5518906;25;19935;-69
2024/05/04 06:37:12;;;;;;;;;;;15.60;99.90;;;;;;5519009;26;20368;-70
2024/05/04 06:39:38;;;;;;;;;;;15.80;99.90;;;;;;5515167;26;19934;-70
2024/05/04 06:42:03;;;;;;;;;;;16.40;99.90;;;;;;5513839;25;20371;-69
2024/05/04 06:44:29;;;;;;;;;;;17.30;99.90;;;;;;5520489;25;19935;-70
2024/05/04 06:46:55;;;;;;;;;;;18.60;99.90;;;;;;5507193;25;19935;-70
2024/05/04 06:49:21;;;;;;;;;;;19.70;99.90;;;;;;5512451;26;19953;-70
2024/05/04 06:51:47;;;;;;;;;;;21.00;99.90;;;;;;5514345;26;20538;-70
2024/05/04 06:54:12;;;;;;;;;;;22.10;99.90;;;;;;5518638;25;20640;-71
2024/05/04 06:56:38;;;;;;;;;;;22.90;98.50;;;;;;5511819;26;19995;-70
2024/05/04 06:59:05;;;;;;;;;;;23.40;95.80;;;;;;5520186;26;19931;-71
2024/05/04 07:01:30;;;;;;;;;;;23.60;95.70;;;;;;5509979;26;19928;-70
2024/05/04 07:03:56;;;;;;;;;;;23.60;95.70;;;;;;5518749;25;20041;-70
2024/05/04 07:06:21;;;;;;;;;;;24.20;95.40;;;;;;5519795;26;19927;-70
2024/05/04 07:08:47;;;;;;;;;;;24.60;94.10;;;;;;5519222;26;19946;-70
2024/05/04 07:11:13;;;;;;;;;;;24.50;91.90;;;;;;5514101;26;19928;-70
2024/05/04 07:13:38;;;;;;;;;;;24.40;90.90;;;;;;5511096;25;20333;-68
2024/05/04 07:16:04;;;;;;;;;;;24.30;92.40;;;;;;5519187;26;20438;-68
2024/05/04 07:18:30;;;;;;;;;;;24.40;91.80;;;;;;5510183;26;19934;-68
2024/05/04 07:20:55;;;;;;;;;;;24.50;91.80;;;;;;5519492;25;19939;-68
2024/05/04 07:23:21;;;;;;;;;;;25.10;91.60;;;;;;5510685;26;19927;-68
2024/05/04 07:25:46;;;;;;;;;;;25.60;90.80;;;;;;5509688;26;20275;-68
2024/05/04 07:28:12;;;;;;;;;;;26.10;90.10;;;;;;5520067;25;19935;-68
2024/05/04 07:30:38;;;;;;;;;;;26.40;89.30;;;;;;5519690;25;20368;-68
2024/05/04 07:33:03;;;;;;;;;;;26.50;87.70;;;;;;5516442;26;19939;-68
2024/05/04 07:35:29;;;;;;;;;;;26.30;84.30;;;;;;5506600;26;19928;-68
2024/05/04 07:37:54;;;;;;;;;;;26.10;87.00;;;;;;5517880;25;19934;-68
2024/05/04 07:40:20;;;;;;;;;;;25.90;86.10;;;;;;5520159;26;19932;-68
2024/05/04 07:42:46;;;;;;;;;;;25.80;87.80;;;;;;5511462;25;19928;-67
2024/05/04 07:45:11;;;;;;;;;;;25.40;87.90;;;;;;5507124;25;19955;-68
2024/05/04 07:47:38;;;;;;;;;;;24.30;88.00;;;;;;5511229;26;19939;-67
2024/05/04 07:50:05;;;;;;;;;;;23.10;91.10;;;;;;5511873;26;19927;-68
2024/05/04 07:52:31;;;;;;;;;;;22.40;91.10;;;;;;5519511;25;19927;-68
2024/05/04 07:54:56;;;;;;;;;;;22.40;92.10;;;;;;5519126;26;19927;-68
2024/05/04 07:57:22;;;;;;;;;;;22.20;94.20;;;;;;5509133;26;20406;-68
2024/05/04 07:59:48;;;;;;;;;;;22.20;93.80;;;;;;5514010;26;19932;-67
2024/05/04 08:02:13;;;;;;;;;;;22.10;92.70;;;;;;5502758;25;19935;-68
2024/05/04 08:04:39;;;;;;;;;;;22.00;93.40;;;;;;5519837;26;20070;-67
2024/05/04 08:07:04;;;;;;;;;;;21.80;94.30;;;;;;5519067;26;19995;-67
2024/05/04 08:09:30;;;;;;;;;;;21.60;94.30;;;;;;5518985;25;19927;-68
2024/05/04 08:11:55;;;;;;;;;;;21.60;94.60;;;;;;5517303;26;19934;-68
2024/05/04 08:14:21;;;;;;;;;;;21.70;94.60;;;;;;5513167;26;19933;-67
2024/05/04 08:16:47;;;;;;;;;;;21.90;93.50;;;;;;5514736;25;19927;-67
2024/05/04 08:19:12;;;;;;;;;;;21.60;93.00;;;;;;5513225;26;20010;-67
2024/05/04 08:21:38;;;;;;;;;;;21.30;92.90;;;;;;5517427;25;19927;-68
2024/05/04 08:24:08;;;;;;;;;;;21.00;94.20;;;;;;5512913;26;19927;-69
2024/05/04 08:26:34;;;;;;;;;;;21.10;95.00;;;;;;5495848;26;19928;-69
2024/05/04 08:29:00;;;;;;;;;;;20.90;94.00;;;;;;5515188;26;19935;-68
2024/05/04 08:31:25;;;;;;;;;;;20.70;92.70;;;;;;5514997;25;20349;-69
2024/05/04 08:33:51;;;;;;;;;;;20.60;95.80;;;;;;5514961;26;20393;-69
2024/05/04 08:36:17;;;;;;;;;;;20.60;95.80;;;;;;5513634;26;20322;-68
2024/05/04 08:38:42;;;;;;;;;;;21.00;96.70;;;;;;5515669;25;19938;-69
2024/05/04 08:41:09;;;;;;;;;;;21.20;96.70;;;;;;5513147;26;20371;-67
2024/05/04 08:43:34;;;;;;;;;;;21.40;95.10;;;;;;5508359;25;20364;-70
2024/05/04 08:46:02;;;;;;;;;;;21.60;96.50;;;;;;5516056;26;19978;-69
2024/05/04 08:48:28;;;;;;;;;;;21.50;94.70;;;;;;5518715;26;20258;-68
2024/05/04 08:50:55;;;;;;;;;;;21.40;97.20;;;;;;5518290;26;19928;-68
2024/05/04 08:53:20;;;;;;;;;;;21.10;96.80;;;;;;5511393;25;19999;-68
2024/05/04 08:55:46;;;;;;;;;;;21.00;96.00;;;;;;5518463;26;19927;-69
2024/05/04 08:58:14;;;;;;;;;;;20.80;97.30;;;;;;5480043;26;20379;-69
2024/05/04 09:00:40;;;;;;;;;;;20.90;96.90;;;;;;5479600;25;19935;-69
2024/05/04 09:03:06;;;;;;;;;;;21.00;95.80;;;;;;5507334;26;19928;-68
2024/05/04 09:05:32;;;;;;;;;;;21.10;96.30;;;;;;5510124;25;19931;-68
2024/05/04 09:07:59;;;;;;;;;;;21.20;96.70;;;;;;5514546;26;20388;-69
2024/05/04 09:10:24;;;;;;;;;;;21.30;95.30;;;;;;5509286;26;20001;-69
2024/05/04 09:12:51;;;;;;;;;;;21.40;95.40;;;;;;5512606;26;19964;-69
2024/05/04 09:15:16;;;;;;;;;;;21.50;96.70;;;;;;5508636;25;19935;-69
2024/05/04 09:17:42;;;;;;;;;;;21.40;96.60;;;;;;5509317;26;19934;-69
2024/05/04 09:20:08;;;;;;;;;;;21.10;94.90;;;;;;5510259;26;20355;-69
2024/05/04 09:22:34;;;;;;;;;;;20.80;97.00;;;;;;5509041;26;19959;-69
2024/05/04 09:24:59;;;;;;;;;;;20.80;97.60;;;;;;5516151;25;19935;-69
2024/05/04 09:27:25;;;;;;;;;;;20.90;97.80;;;;;;5518102;25;20601;-69
2024/05/04 09:29:51;;;;;;;;;;;20.60;95.80;;;;;;5515285;26;20367;-69
2024/05/04 09:32:17;;;;;;;;;;;20.40;96.20;;;;;;5488115;26;19934;-69
2024/05/04 09:34:45;;;;;;;;;;;20.50;98.50;;;;;;5512068;26;19939;-69
2024/05/04 09:37:11;;;;;;;;;;;20.70;96.70;;;;;;5515500;26;19927;-69
2024/05/04 09:39:40;;;;;;;;;;;20.90;97.50;;;;;;5510752;26;19935;-69
2024/05/04 09:42:06;;;;;;;;;;;20.90;97.60;;;;;;5506298;25;19928;-69
2024/05/04 09:44:34;;;;;;;;;;;21.10;98.50;;;;;;5506511;26;19928;-69
2024/05/04 09:47:01;;;;;;;;;;;21.20;97.90;;;;;;5520948;26;19928;-70
2024/05/04 09:49:26;;;;;;;;;;;21.20;96.60;;;;;;5520672;25;19928;-69
2024/05/04 09:51:54;;;;;;;;;;;21.10;96.90;;;;;;5516322;25;20647;-69
2024/05/04 09:54:20;;;;;;;;;;;20.90;96.70;;;;;;5507249;25;19935;-69
2024/05/04 09:56:48;;;;;;;;;;;21.00;97.70;;;;;;5520188;26;19951;-69
2024/05/04 09:59:15;;;;;;;;;;;20.80;95.80;;;;;;5506617;26;20295;-69
2024/05/04 10:01:41;;;;;;;;;;;20.60;95.70;;;;;;5521724;26;19943;-69
2024/05/04 10:04:11;;;;;;;;;;;20.30;95.70;;;;;;5509058;25;20016;-68
2024/05/04 10:06:38;;;;;;;;;;;20.30;95.90;;;;;;5514019;25;20383;-68
2024/05/04 10:09:03;;;;;;;;;;;20.40;96.20;;;;;;5519963;26;19927;-68
2024/05/04 10:11:33;;;;;;;;;;;20.20;96.10;;;;;;5513212;26;19935;-69
2024/05/04 10:13:58;;;;;;;;;;;20.20;97.60;;;;;;5516015;25;19934;-68
2024/05/04 10:16:24;;;;;;;;;;;20.30;98.70;;;;;;5518208;25;19927;-67
2024/05/04 10:18:49;;;;;;;;;;;20.30;95.40;;;;;;5519976;25;20366;-67
2024/05/04 10:21:25;;;;;;;;;;;20.20;95.20;;;;;;5519199;26;19928;-67
2024/05/04 10:23:51;;;;;;;;;;;20.30;95.10;;;;;;5506157;26;19950;-67
2024/05/04 10:26:18;;;;;;;;;;;19.90;94.40;;;;;;5520878;25;19931;-67
2024/05/04 10:28:43;;;;;;;;;;;20.00;96.90;;;;;;5513936;25;19931;-68
2024/05/04 10:31:09;;;;;;;;;;;20.30;96.20;;;;;;5515193;26;19939;-69
2024/05/04 10:33:34;;;;;;;;;;;20.50;95.00;;;;;;5514191;26;19935;-69
2024/05/04 10:36:00;;;;;;;;;;;20.80;94.90;;;;;;5512418;25;19995;-70
2024/05/04 10:38:26;;;;;;;;;;;21.00;95.20;;;;;;5517403;26;19935;-70
2024/05/04 10:40:51;;;;;;;;;;;21.00;95.00;;;;;;5519330;26;19959;-69
2024/05/04 10:43:17;;;;;;;;;;;20.80;91.10;;;;;;5516600;25;19934;-69
2024/05/04 10:45:43;;;;;;;;;;;20.50;93.10;;;;;;5510632;26;19947;-69
2024/05/04 10:48:09;;;;;;;;;;;20.10;93.40;;;;;;5503323;26;19927;-70
2024/05/04 10:50:34;;;;;;;;;;;20.10;96.10;;;;;;5511904;25;19931;-69
2024/05/04 10:53:01;;;;;;;;;;;20.50;96.40;;;;;;5520676;25;20375;-69
2024/05/04 10:55:27;;;;;;;;;;;20.70;95.10;;;;;;5520443;26;19927;-69
2024/05/04 10:57:52;;;;;;;;;;;20.80;93.20;;;;;;5513765;26;19928;-69
2024/05/04 11:00:21;;;;;;;;;;;20.50;93.50;;;;;;5515006;25;19927;-69
2024/05/04 11:02:49;;;;;;;;;;;20.40;94.70;;;;;;5516959;26;20449;-69
2024/05/04 11:05:15;;;;;;;;;;;20.30;93.50;;;;;;5511179;26;19935;-69
2024/05/04 11:07:41;;;;;;;;;;;20.30;92.10;;;;;;5510562;26;19927;-69
2024/05/04 11:10:07;;;;;;;;;;;20.40;92.60;;;;;;5514041;25;19928;-69
2024/05/04 11:12:33;;;;;;;;;;;20.40;93.60;;;;;;5513425;26;19939;-69
2024/05/04 11:14:58;;;;;;;;;;;20.30;90.60;;;;;;5513212;26;19928;-69
2024/05/04 11:17:24;;;;;;;;;;;20.50;92.90;;;;;;5516880;25;19996;-69
2024/05/04 11:19:49;;;;;;;;;;;20.40;92.40;;;;;;5513728;26;19968;-70
2024/05/04 11:22:15;;;;;;;;;;;20.70;95.60;;;;;;5511434;26;19935;-69
2024/05/04 11:24:41;;;;;;;;;;;20.80;93.00;;;;;;5506615;26;19935;-69
2024/05/04 11:27:07;;;;;;;;;;;21.10;92.20;;;;;;5509498;25;19935;-69
2024/05/04 11:29:33;;;;;;;;;;;21.40;90.90;;;;;;5515081;26;19927;-69
2024/05/04 11:31:58;;;;;;;;;;;21.50;94.80;;;;;;5519614;26;19931;-69
2024/05/04 11:34:24;;;;;;;;;;;21.40;91.20;;;;;;5509175;25;19947;-69
2024/05/04 11:36:50;;;;;;;;;;;21.20;92.40;;;;;;5514918;26;19999;-70
2024/05/04 11:39:15;;;;;;;;;;;21.30;91.10;;;;;;5487906;26;20366;-70
2024/05/04 11:41:41;;;;;;;;;;;21.20;91.80;;;;;;5513586;25;19963;-69
2024/05/04 11:44:07;;;;;;;;;;;20.80;91.10;;;;;;5519404;26;19936;-69
2024/05/04 11:46:33;;;;;;;;;;;20.60;91.90;;;;;;5518031;26;20276;-69
2024/05/04 11:48:58;;;;;;;;;;;20.40;92.50;;;;;;5519614;26;19935;-69
2024/05/04 11:51:24;;;;;;;;;;;20.20;93.10;;;;;;5507946;25;20000;-69
2024/05/04 11:53:50;;;;;;;;;;;20.00;93.10;;;;;;5519409;26;19927;-69
2024/05/04 11:56:16;;;;;;;;;;;19.70;93.20;;;;;;5516760;26;20332;-69
2024/05/04 11:58:42;;;;;;;;;;;19.40;92.20;;;;;;5511431;25;20356;-68
2024/05/04 12:01:07;;;;;;;;;;;19.40;96.00;;;;;;5517312;26;20438;-68
2024/05/04 12:03:33;;;;;;;;;;;19.30;95.30;;;;;;5509443;26;19939;-69
2024/05/04 12:05:59;;;;;;;;;;;19.50;97.50;;;;;;5513888;26;20286;-69
2024/05/04 12:08:25;;;;;;;;;;;19.60;95.10;;;;;;5507039;25;19927;-69
2024/05/04 12:10:50;;;;;;;;;;;19.60;93.90;;;;;;5509541;26;19927;-69
2024/05/04 12:13:16;;;;;;;;;;;19.40;94.40;;;;;;5519361;26;19932;-68
2024/05/04 12:15:41;;;;;;;;;;;19.20;93.80;;;;;;5508663;25;19995;-68
2024/05/04 12:18:07;;;;;;;;;;;19.10;94.50;;;;;;5513496;26;20264;-69
2024/05/04 12:20:33;;;;;;;;;;;19.00;95.10;;;;;;5519158;26;19928;-68
2024/05/04 12:22:58;;;;;;;;;;;19.00;95.80;;;;;;5518796;25;19934;-68
2024/05/04 12:25:24;;;;;;;;;;;19.00;95.10;;;;;;5515833;26;19940;-68
2024/05/04 12:27:50;;;;;;;;;;;18.90;95.00;;;;;;5512831;26;19939;-69
2024/05/04 12:30:15;;;;;;;;;;;18.90;95.50;;;;;;5482940;26;20426;-69
2024/05/04 12:32:41;;;;;;;;;;;19.00;95.50;;;;;;5481065;26;19934;-68
2024/05/04 12:35:08;;;;;;;;;;;19.10;96.50;;;;;;5511944;25;19936;-69
2024/05/04 12:37:34;;;;;;;;;;;18.90;93.60;;;;;;5510311;25;20263;-69
2024/05/04 12:39:59;;;;;;;;;;;18.70;94.60;;;;;;5495680;25;19955;-69
2024/05/04 12:42:25;;;;;;;;;;;18.70;93.80;;;;;;5504813;25;19934;-68
2024/05/04 12:44:50;;;;;;;;;;;18.70;94.10;;;;;;5517820;26;20267;-70
2024/05/04 12:47:16;;;;;;;;;;;18.70;93.90;;;;;;5513026;26;20373;-68
2024/05/04 12:49:45;;;;;;;;;;;18.80;94.10;;;;;;5518973;26;19939;-68
2024/05/04 12:52:10;;;;;;;;;;;19.00;95.30;;;;;;5515917;25;20007;-68
2024/05/04 12:54:37;;;;;;;;;;;19.00;94.30;;;;;;5517259;26;19936;-68
2024/05/04 12:57:03;;;;;;;;;;;19.10;95.30;;;;;;5509158;26;19939;-68
2024/05/04 12:59:29;;;;;;;;;;;19.10;94.70;;;;;;5510488;25;19991;-68
2024/05/04 13:01:54;;;;;;;;;;;19.30;94.40;;;;;;5512839;26;19934;-68
2024/05/04 13:04:20;;;;;;;;;;;19.40;94.50;;;;;;5516632;26;20388;-69
2024/05/04 13:06:47;;;;;;;;;;;19.50;94.30;;;;;;5512014;25;19928;-68
2024/05/04 13:09:14;;;;;;;;;;;19.70;96.50;;;;;;5512475;26;20401;-69
2024/05/04 13:11:43;;;;;;;;;;;19.70;94.80;;;;;;5510290;26;19935;-69
2024/05/04 13:14:08;;;;;;;;;;;19.80;94.30;;;;;;5520079;26;19980;-69
2024/05/04 13:16:34;;;;;;;;;;;19.90;96.10;;;;;;5521379;25;19982;-68
2024/05/04 13:19:00;;;;;;;;;;;19.90;95.00;;;;;;5522293;26;19928;-69
2024/05/04 13:21:25;;;;;;;;;;;20.10;97.10;;;;;;5515578;26;19932;-68
2024/05/04 13:23:51;;;;;;;;;;;20.00;96.50;;;;;;5511386;25;20267;-69
2024/05/04 13:26:17;;;;;;;;;;;19.90;94.80;;;;;;5521675;26;20002;-69
2024/05/04 13:28:44;;;;;;;;;;;19.60;94.80;;;;;;5514510;25;19928;-69
2024/05/04 13:31:09;;;;;;;;;;;19.50;95.60;;;;;;5514808;26;19935;-68
2024/05/04 13:33:35;;;;;;;;;;;19.40;95.40;;;;;;5515620;26;19959;-68
2024/05/04 13:36:01;;;;;;;;;;;19.30;95.70;;;;;;5515246;25;20403;-69
2024/05/04 13:38:29;;;;;;;;;;;19.00;94.70;;;;;;5521544;26;19927;-68
2024/05/04 13:40:55;;;;;;;;;;;18.80;95.10;;;;;;5520925;26;19927;-69
2024/05/04 13:43:20;;;;;;;;;;;18.50;96.10;;;;;;5512732;25;19976;-68
2024/05/04 13:45:46;;;;;;;;;;;18.30;96.10;;;;;;5516375;26;19935;-68
2024/05/04 13:48:11;;;;;;;;;;;18.00;97.20;;;;;;5520668;26;20398;-69
2024/05/04 13:50:37;;;;;;;;;;;17.80;95.50;;;;;;5510024;25;19955;-69
2024/05/04 13:53:03;;;;;;;;;;;17.60;93.90;;;;;;5521033;26;19934;-69
2024/05/04 13:55:29;;;;;;;;;;;17.60;94.90;;;;;;5507444;26;19940;-68
2024/05/04 13:57:55;;;;;;;;;;;17.60;94.10;;;;;;5511484;25;19999;-68
2024/05/04 14:00:23;;;;;;;;;;;17.60;96.50;;;;;;5511446;26;19928;-68
2024/05/04 14:02:49;;;;;;;;;;;17.70;95.20;;;;;;5499678;26;20349;-70
2024/05/04 14:05:15;;;;;;;;;;;17.80;95.90;;;;;;5502581;26;19935;-69
2024/05/04 14:07:41;;;;;;;;;;;17.90;98.10;;;;;;5513542;25;19939;-68
2024/05/04 14:10:07;;;;;;;;;;;17.90;97.90;;;;;;5512995;26;20260;-68
2024/05/04 14:12:33;;;;;;;;;;;17.90;97.10;;;;;;5513054;26;19934;-68